createdAt,value
2019-01-15T00:05:20.477Z,4
2019-01-15T00:15:29.562Z,6
2019-01-15T00:25:35.741Z,5
2019-01-15T00:35:42.655Z,4
2019-01-15T00:45:51.748Z,4
2019-01-15T00:55:58.119Z,5
2019-01-15T01:06:04.944Z,4
2019-01-15T01:16:12.457Z,4
2019-01-15T01:26:20.620Z,4
2019-01-15T01:36:26.456Z,6
2019-01-15T01:46:34.798Z,6
2019-01-15T01:56:39.383Z,6
2019-01-15T02:06:46.412Z,6
2019-01-15T02:16:53.273Z,4
2019-01-15T02:27:01.896Z,5
2019-01-15T02:37:11.775Z,6
2019-01-15T02:47:23.560Z,6
2019-01-15T02:57:31.429Z,8
2019-01-15T03:07:38.144Z,7
2019-01-15T03:17:45.646Z,8
2019-01-15T03:27:51.491Z,9
2019-01-15T03:38:00.307Z,7
2019-01-15T03:48:08.194Z,9
2019-01-15T03:58:16.389Z,7
2019-01-15T04:08:23.058Z,6
2019-01-15T04:18:31.109Z,5
2019-01-15T04:28:36.041Z,4
2019-01-15T04:38:44.081Z,5
2019-01-15T04:48:57.612Z,6
2019-01-15T04:59:03.903Z,6
2019-01-15T05:09:10.688Z,7
2019-01-15T05:19:18.127Z,7
2019-01-15T05:29:25.089Z,6
2019-01-15T05:39:31.023Z,7
2019-01-15T05:49:36.755Z,9
2019-01-15T05:59:44.815Z,7
2019-01-15T06:09:51.518Z,6
2019-01-15T06:19:58.150Z,9
2019-01-15T06:30:04.582Z,7
2019-01-15T06:40:13.368Z,6
2019-01-15T06:44:27.537Z,7
2019-01-15T06:54:34.644Z,5
2019-01-15T07:04:44.509Z,3
2019-01-15T07:12:03.236Z,3
2019-01-15T07:13:57.713Z,3
2019-01-15T07:24:00.883Z,3
2019-01-15T07:30:17.046Z,2
2019-01-15T07:39:36.576Z,3
2019-01-15T07:49:44.867Z,4
2019-01-15T07:59:54.022Z,6
2019-01-15T08:10:00.036Z,3
2019-01-15T08:13:18.928Z,3
2019-01-15T08:23:22.217Z,6
2019-01-15T08:33:47.622Z,3
2019-01-15T08:43:48.767Z,3
2019-01-15T08:45:01.058Z,3
2019-01-15T08:55:09.028Z,3
2019-01-15T09:05:16.178Z,5
2019-01-15T09:10:33.377Z,2
2019-01-15T09:17:49.634Z,2
2019-01-15T09:21:07.821Z,3
2019-01-15T09:31:13.722Z,5
2019-01-15T09:40:34.765Z,5
2019-01-15T09:50:43.719Z,5
2019-01-15T09:53:07.069Z,3
2019-01-15T09:56:35.543Z,4
2019-01-15T09:58:48.949Z,3
2019-01-15T10:05:04.881Z,4
2019-01-15T10:10:19.654Z,4
2019-01-15T10:20:24.313Z,4
2019-01-15T10:30:33.854Z,3
2019-01-15T10:40:42.019Z,3
2019-01-15T10:50:49.896Z,3
2019-01-15T11:00:57.091Z,3
2019-01-15T11:11:06.656Z,3
2019-01-15T11:16:22.753Z,2
2019-01-15T11:26:30.736Z,3
2019-01-15T11:31:51.867Z,1
2019-01-15T11:34:01.791Z,4
2019-01-15T11:36:07.995Z,3
2019-01-15T11:46:13.908Z,2
2019-01-15T11:47:27.157Z,3
2019-01-15T11:57:34.541Z,3
2019-01-15T11:59:49.078Z,3
2019-01-15T12:03:00.790Z,11
2019-01-15T12:06:19.327Z,10
2019-01-15T12:16:41.462Z,10
2019-01-15T12:27:00.748Z,10
2019-01-15T12:36:18.306Z,3
2019-01-15T12:37:35.465Z,4
2019-01-15T12:39:59.454Z,4
2019-01-15T12:50:07.936Z,2
2019-01-15T12:56:28.007Z,4
2019-01-15T12:57:42.766Z,3
2019-01-15T12:58:54.602Z,9
2019-01-15T13:05:09.077Z,5
2019-01-15T13:11:25.181Z,4
2019-01-15T13:20:44.987Z,8
2019-01-15T13:30:57.197Z,4
2019-01-15T13:37:17.475Z,3
2019-01-15T13:39:33.119Z,3
2019-01-15T13:49:37.921Z,6
2019-01-15T13:59:45.408Z,5
2019-01-15T14:01:03.796Z,5
2019-01-15T14:02:41.031Z,8
2019-01-15T14:12:57.105Z,3
2019-01-15T14:16:10.719Z,4
2019-01-15T14:17:21.920Z,3
2019-01-15T14:22:49.585Z,4
2019-01-15T14:25:54.546Z,5
2019-01-15T14:28:13.856Z,4
2019-01-15T14:30:27.644Z,4
2019-01-15T14:32:19.060Z,4
2019-01-15T14:33:39.775Z,4
2019-01-15T14:43:47.396Z,4
2019-01-15T14:46:03.561Z,10
2019-01-15T14:47:16.649Z,6
2019-01-15T14:53:59.825Z,4
2019-01-15T14:56:17.450Z,5
2019-01-15T14:59:43.184Z,4
2019-01-15T15:09:46.823Z,4
2019-01-15T15:15:16.344Z,5
2019-01-15T15:25:27.861Z,5
2019-01-15T15:35:33.540Z,6
2019-01-15T15:40:47.555Z,4
2019-01-15T15:50:53.988Z,4
2019-01-15T16:01:02.976Z,6
2019-01-15T16:11:08.000Z,5
2019-01-15T16:15:22.020Z,6
2019-01-15T16:25:29.636Z,4
2019-01-15T16:35:38.510Z,6
2019-01-15T16:45:46.205Z,5
2019-01-15T16:52:08.444Z,6
2019-01-15T16:58:52.139Z,4
2019-01-15T17:08:56.902Z,6
2019-01-15T17:12:11.266Z,5
2019-01-15T17:22:19.168Z,5
2019-01-15T17:32:26.355Z,5
2019-01-15T17:42:33.283Z,5
2019-01-15T17:46:43.289Z,10
2019-01-15T17:56:46.150Z,11
2019-01-15T18:06:53.283Z,7
2019-01-15T18:08:11.042Z,6
2019-01-15T18:17:26.530Z,6
2019-01-15T18:27:33.558Z,7
2019-01-15T18:32:49.887Z,6
2019-01-15T18:38:06.930Z,7
2019-01-15T18:45:00.969Z,8
2019-01-15T18:55:19.207Z,8
2019-01-15T19:05:25.519Z,10
2019-01-15T19:15:33.074Z,20
2019-01-15T19:25:41.790Z,22
2019-01-15T19:35:49.154Z,11
2019-01-15T19:45:55.634Z,9
2019-01-15T19:56:02.975Z,10
2019-01-15T20:06:08.402Z,10
2019-01-15T20:16:17.585Z,11
2019-01-15T20:26:23.141Z,11
2019-01-15T20:36:30.351Z,12
2019-01-15T20:46:39.472Z,12
2019-01-15T20:56:46.863Z,10
2019-01-15T21:06:52.255Z,13
2019-01-15T21:16:59.233Z,12
2019-01-15T21:18:11.804Z,9
2019-01-15T21:28:18.791Z,20
2019-01-15T21:38:29.455Z,8
2019-01-15T21:48:37.222Z,12
2019-01-15T21:58:46.628Z,12
2019-01-15T22:08:53.012Z,12
2019-01-15T22:19:02.038Z,10
2019-01-15T22:29:07.736Z,12
2019-01-15T22:39:15.549Z,10
2019-01-15T22:49:29.224Z,9
2019-01-15T22:59:36.253Z,8
2019-01-15T23:09:44.686Z,9
2019-01-15T23:19:51.847Z,9
2019-01-15T23:29:59.139Z,8
2019-01-15T23:40:07.152Z,9
2019-01-15T23:50:14.376Z,8
